Impacts TAF Board
For situational awareness. Not to be used for flight planning purposes.
IDs:

KBWI - Baltimore-Washington, MD, US

Issued at 0859 UTC 11 May 2021
Updated at 1051 UTC 11 May 2021
Potential Impact None Slight Moderate High
Time0954Z 11/11Z 11/12Z 11/13Z 11/14Z 11/15Z 11/16Z 11/17Z 11/18Z 11/19Z 11/20Z 11/21Z 11/22Z 11/23Z>>
Type OBS PRVL PRVL PRVL PRVL PRVL PRVL PRVL PRVL PRVL PRVL PRVL PRVL PRVL
VIS 10 >6 >6 >6 >6 >6 >6 >6 >6 >6 >6 >6 >6 >6
CIG 100 250 250 250 -- -- -- -- -- -- -- -- -- --
Cover BKN BKN BKN BKN SCT SCT SCT SCT SCT SCT SCT SCT SCT SCT
FltCat VFR VFR VFR VFR VFR VFR VFR VFR VFR VFR VFR VFR VFR VFR
WX -- -- -- -- -- -- -- -- -- -- -- -- -- --
WDir VRB 320 320 320 270 270 270 270 280 280 280 280 280 280
WSpd 0 4 4 4 8 8 8 8 12 12 12 12 12 12
WGst -- -- -- -- -- -- -- -- 24 24 24 24 24 24
Raw TAF
KBWI 110859Z 1109/1212 32004KT P6SM BKN250
  FM111400 27008KT P6SM SCT100
  FM111800 28012G24KT P6SM SCT070
  FM120000 32008KT P6SM BKN080


Raw METAR
KBWI 110954Z 00000KT 10SM BKN100 BKN200 BKN250 09/05 A3008 RMK AO2 SLP185 T00890050
KBWI 110854Z 00000KT 10SM FEW070 FEW120 BKN130 OVC250 11/03 A3007 RMK AO2 SLP183 T01110028 53007
KBWI 110754Z 00000KT 10SM OVC130 11/04 A3005 RMK AO2 SLP176 T01060039

METAR Board
Radar Display
Forecast Discussion
For situational awareness. Not to be used for flight planning purposes.